Airfield :
LOGIN :

Register | Disclaimer

   EN    FR    IT 

 










Legend :    VFR   Marginal VFR   IFR   Intensive IFR   Very Intensive IFR
Visi :
Ceiling :
>= 8 km
>= 3000ft
5 to 8 km
1000 to 3000 ft
1500m to 5 km
500 to 1000 ft
800 to 1500m
200 to 500 ft
< 800m
< 200 ft
Symbols :   Thunderstorms  Fog  Heavy snow  Heavy precipitations  Wind > 20 kt
SIGMETs :     Misc.  Thunderstorms  Icing  Turbulence  Mountain Waves  Volcanic Ashes






- Airport Elevation : 97 ft
- IATA code : EBJ


EKEB - Esbjerg

CURRENT METAR :
  • 051720Z AUTO 21014G24KT 190V250 9999 BKN025/// 08/05 Q1007

EXPIRED METARs :
  • 051650Z AUTO 22014KT 9999 BKN022/// 08/05 Q1007
  • 051620Z AUTO 22012G22KT 9999 BKN026/// BKN220/// 08/05 Q1007
  • 051550Z AUTO 22014G24KT 9999 BKN024/// 08/05 Q1008
  • 051520Z AUTO 22013KT 9999 OVC027/// 08/05 Q1009
  • 051450Z AUTO 22012KT 190V250 9999 BKN031/// 08/05 Q1009

TAF TAF EKEB
Valid from the 05 at 18:00 until the 05 at 23:00 UTC


051705Z 0518/0523 23018KT 9999 BKN015
TEMPO 0518/0523 22025G40KT



MET'MAP, your aeronautical weather chart ! - Copyright ORBIFLY December 2007 - Disclaimer

ORBIFLY MET'MAP TEAM :

Programming & Development : Alexandra Zaïnal
Concept & original design : Baudouin d'Aumeries
Assistance for programming : Marc-Olivier Méhu
Technical & hardware support : Manuel Goepfert

Contact : metmap@orbifly.com




SOURCES & CREDITS :

   NOAA